createdAt,value
2022-10-18T00:00:17.139Z,95.20
2022-10-18T00:02:43.885Z,95.10
2022-10-18T00:05:10.781Z,95.00
2022-10-18T00:07:37.572Z,95.00
2022-10-18T00:10:05.497Z,95.10
2022-10-18T00:12:37.104Z,95.10
2022-10-18T00:15:06.227Z,95.00
2022-10-18T00:17:35.565Z,95.10
2022-10-18T00:20:03.034Z,95.10
2022-10-18T00:22:30.263Z,95.20
2022-10-18T00:24:57.386Z,95.20
2022-10-18T00:27:24.153Z,95.30
2022-10-18T00:29:53.528Z,95.30
2022-10-18T00:32:20.433Z,95.30
2022-10-18T00:34:47.291Z,95.30
2022-10-18T00:37:14.047Z,95.40
2022-10-18T00:39:41.260Z,95.70
2022-10-18T00:42:09.985Z,95.40
2022-10-18T00:44:38.511Z,95.30
2022-10-18T00:47:11.049Z,95.30
2022-10-18T00:49:53.728Z,95.20
2022-10-18T00:52:28.252Z,95.00
2022-10-18T00:54:56.733Z,95.10
2022-10-18T00:57:24.474Z,95.50
2022-10-18T00:59:51.714Z,95.00
2022-10-18T01:02:19.140Z,95.00
2022-10-18T01:04:47.171Z,95.00
2022-10-18T01:07:28.155Z,95.00
2022-10-18T01:10:01.586Z,94.90
2022-10-18T01:12:57.256Z,95.00
2022-10-18T01:15:26.828Z,94.80
2022-10-18T01:17:59.533Z,95.20
2022-10-18T01:20:57.935Z,94.80
2022-10-18T01:24:12.157Z,94.70
2022-10-18T01:27:03.711Z,94.50
2022-10-18T01:29:33.404Z,94.70
2022-10-18T01:32:05.078Z,94.80
2022-10-18T01:34:41.298Z,94.70
2022-10-18T01:37:11.274Z,94.70
2022-10-18T01:39:42.560Z,94.80
2022-10-18T01:42:12.171Z,94.70
2022-10-18T01:44:41.505Z,94.70
2022-10-18T01:47:10.904Z,94.70
2022-10-18T01:49:37.613Z,94.70
2022-10-18T01:52:04.497Z,94.70
2022-10-18T01:54:37.338Z,94.70
2022-10-18T01:57:23.858Z,94.70
2022-10-18T02:00:05.247Z,94.80
2022-10-18T02:02:50.536Z,94.90
2022-10-18T02:05:29.574Z,94.70
2022-10-18T02:08:22.983Z,94.80
2022-10-18T02:11:04.740Z,94.70
2022-10-18T02:13:41.908Z,94.80
2022-10-18T02:16:13.008Z,94.90
2022-10-18T02:18:44.587Z,95.00
2022-10-18T02:21:15.746Z,95.00
2022-10-18T02:23:47.325Z,94.90
2022-10-18T02:26:15.338Z,95.00
2022-10-18T02:28:42.934Z,95.00
2022-10-18T02:31:33.124Z,95.00
2022-10-18T02:34:35.900Z,94.90
2022-10-18T02:37:03.076Z,94.80
2022-10-18T02:39:40.122Z,95.00
2022-10-18T02:42:09.796Z,95.10
2022-10-18T02:44:38.147Z,95.10
2022-10-18T02:47:06.375Z,95.10
2022-10-18T02:49:33.233Z,95.20
2022-10-18T02:52:00.105Z,95.60
2022-10-18T02:54:29.200Z,95.20
2022-10-18T02:56:55.894Z,95.30
2022-10-18T02:59:22.568Z,95.30
2022-10-18T03:01:49.357Z,95.30
2022-10-18T03:04:18.465Z,95.30
2022-10-18T03:06:45.333Z,95.40
2022-10-18T03:09:12.029Z,95.40
2022-10-18T03:11:38.694Z,95.40
2022-10-18T03:14:05.437Z,95.40
2022-10-18T03:16:34.564Z,95.40
2022-10-18T03:19:01.525Z,95.40
2022-10-18T03:21:28.306Z,95.50
2022-10-18T03:23:56.097Z,95.40
2022-10-18T03:26:26.172Z,95.90
2022-10-18T03:28:52.879Z,95.50
2022-10-18T03:31:19.807Z,95.50
2022-10-18T03:33:46.793Z,95.50
2022-10-18T03:36:13.549Z,95.60
2022-10-18T03:38:40.421Z,95.60
2022-10-18T03:41:07.267Z,95.60
2022-10-18T03:43:34.319Z,95.60
2022-10-18T03:46:01.604Z,95.70
2022-10-18T03:48:28.411Z,95.60
2022-10-18T03:50:55.256Z,95.60
2022-10-18T03:53:24.827Z,95.70
2022-10-18T03:55:55.753Z,95.70
2022-10-18T03:58:23.317Z,95.70
2022-10-18T04:00:51.975Z,95.70
2022-10-18T04:03:19.520Z,95.70
2022-10-18T04:05:47.771Z,95.90
2022-10-18T04:08:15.493Z,95.60
2022-10-18T04:10:42.586Z,95.60
2022-10-18T04:13:09.533Z,95.60
2022-10-18T04:15:39.038Z,95.60
2022-10-18T04:18:05.928Z,95.60
2022-10-18T04:20:32.632Z,95.60
2022-10-18T04:23:02.261Z,95.60
2022-10-18T04:25:29.405Z,95.60
2022-10-18T04:27:56.346Z,95.60
2022-10-18T04:30:23.083Z,95.70
2022-10-18T04:32:49.749Z,95.70
2022-10-18T04:35:16.624Z,96.10
2022-10-18T04:37:43.490Z,95.70
2022-10-18T04:40:11.531Z,95.70
2022-10-18T04:42:38.314Z,95.70
2022-10-18T04:45:05.460Z,95.60
2022-10-18T04:47:32.504Z,95.60
2022-10-18T04:49:59.571Z,95.60
2022-10-18T04:52:26.269Z,95.60
2022-10-18T04:54:53.050Z,95.60
2022-10-18T04:57:19.994Z,95.50
2022-10-18T04:59:46.881Z,95.50
2022-10-18T05:02:13.638Z,95.50
2022-10-18T05:04:40.389Z,95.40
2022-10-18T05:07:07.241Z,95.40
2022-10-18T05:09:33.972Z,95.40
2022-10-18T05:12:00.774Z,95.40
2022-10-18T05:14:30.110Z,95.80
2022-10-18T05:16:56.869Z,95.50
2022-10-18T05:19:23.676Z,95.50
2022-10-18T05:21:50.452Z,95.50
2022-10-18T05:24:17.283Z,95.50
2022-10-18T05:26:43.991Z,95.50
2022-10-18T05:29:10.914Z,95.60
2022-10-18T05:31:37.789Z,95.60
2022-10-18T05:34:04.552Z,95.60
2022-10-18T05:36:31.581Z,95.60
2022-10-18T05:39:01.000Z,95.60
2022-10-18T05:41:31.188Z,95.60
2022-10-18T05:43:58.169Z,95.70
2022-10-18T05:46:25.243Z,95.70
2022-10-18T05:48:52.266Z,95.70
2022-10-18T05:51:19.571Z,95.70
2022-10-18T05:53:46.481Z,95.70
2022-10-18T05:56:14.408Z,95.60
2022-10-18T05:58:42.719Z,95.60
2022-10-18T06:01:10.448Z,95.60
2022-10-18T06:03:39.311Z,96.00
2022-10-18T06:06:08.251Z,95.60
2022-10-18T06:08:35.513Z,95.60
2022-10-18T06:11:09.619Z,95.60
2022-10-18T06:13:41.116Z,95.50
2022-10-18T06:16:08.059Z,95.50
2022-10-18T06:18:41.298Z,95.50
2022-10-18T06:21:08.771Z,95.50
2022-10-18T06:23:35.875Z,95.50
2022-10-18T06:26:05.605Z,95.50
2022-10-18T06:28:35.087Z,95.50
2022-10-18T06:31:01.947Z,95.50
2022-10-18T06:33:30.804Z,95.50
2022-10-18T06:36:21.454Z,95.40
2022-10-18T06:38:48.733Z,95.30
2022-10-18T06:41:18.096Z,95.40
2022-10-18T06:43:48.694Z,95.50
2022-10-18T06:46:15.760Z,95.50
2022-10-18T06:48:45.211Z,95.40
2022-10-18T06:51:12.227Z,95.40
2022-10-18T06:53:48.555Z,95.40
2022-10-18T06:56:20.270Z,95.40
2022-10-18T06:58:47.084Z,95.50
2022-10-18T07:01:16.536Z,95.50
2022-10-18T07:03:44.303Z,95.60
2022-10-18T07:06:13.413Z,95.50
2022-10-18T07:08:40.688Z,95.80
2022-10-18T07:11:09.226Z,95.40
2022-10-18T07:13:36.048Z,95.40
2022-10-18T07:16:06.371Z,95.40
2022-10-18T07:18:38.741Z,95.40
2022-10-18T07:21:07.909Z,95.50
2022-10-18T07:23:41.882Z,95.40
2022-10-18T07:26:18.718Z,95.40
2022-10-18T07:28:47.824Z,95.30
2022-10-18T07:31:14.941Z,95.40
2022-10-18T07:33:44.544Z,95.30
2022-10-18T07:36:12.653Z,95.40
2022-10-18T07:38:40.216Z,95.50
2022-10-18T07:41:12.019Z,95.50
2022-10-18T07:43:42.995Z,95.60
2022-10-18T07:46:09.876Z,95.60
2022-10-18T07:48:38.472Z,95.50
2022-10-18T07:51:05.770Z,95.50
2022-10-18T07:53:34.596Z,95.50
2022-10-18T07:56:05.898Z,95.40
2022-10-18T07:58:35.456Z,95.40
2022-10-18T08:01:06.894Z,95.30
2022-10-18T08:03:34.849Z,95.30
2022-10-18T08:06:02.428Z,95.20
2022-10-18T08:08:29.994Z,95.20
2022-10-18T08:11:02.933Z,95.20
2022-10-18T08:13:30.613Z,95.10
2022-10-18T08:16:06.159Z,95.10
2022-10-18T08:18:33.623Z,94.90
2022-10-18T08:21:08.581Z,94.90
2022-10-18T08:23:35.828Z,95.10
2022-10-18T08:26:04.744Z,95.10
2022-10-18T08:28:34.728Z,95.20
2022-10-18T08:31:06.350Z,95.20
2022-10-18T08:33:36.398Z,95.20
2022-10-18T08:36:07.305Z,95.10
2022-10-18T08:38:39.077Z,95.00
2022-10-18T08:41:24.397Z,95.30
2022-10-18T08:43:56.688Z,95.70
2022-10-18T08:46:25.506Z,95.00
2022-10-18T08:48:55.413Z,94.50
2022-10-18T08:51:44.898Z,94.30
2022-10-18T08:54:15.954Z,94.10
2022-10-18T08:56:49.276Z,94.30
2022-10-18T08:59:16.028Z,93.70
2022-10-18T09:02:05.561Z,93.90
2022-10-18T09:04:47.438Z,94.60
2022-10-18T09:07:38.835Z,94.10
2022-10-18T09:10:21.131Z,93.90
2022-10-18T09:13:29.622Z,93.80
2022-10-18T09:16:03.909Z,93.70
2022-10-18T09:18:57.356Z,93.30
2022-10-18T09:21:57.677Z,93.30
2022-10-18T09:24:39.096Z,93.10
2022-10-18T09:27:16.515Z,92.70
2022-10-18T09:30:10.323Z,92.30
2022-10-18T09:32:59.578Z,92.20
2022-10-18T09:35:47.819Z,92.10
2022-10-18T09:38:19.364Z,92.10
2022-10-18T09:40:56.001Z,92.00
2022-10-18T09:43:42.972Z,92.10
2022-10-18T09:46:10.885Z,91.90
2022-10-18T09:49:18.909Z,91.90
2022-10-18T09:51:50.703Z,92.10
2022-10-18T09:54:27.420Z,91.60
2022-10-18T09:57:03.874Z,91.30
2022-10-18T09:59:51.002Z,91.10
2022-10-18T10:02:22.766Z,90.80
2022-10-18T10:04:50.683Z,90.30
2022-10-18T10:07:29.886Z,90.20
2022-10-18T10:10:24.106Z,90.20
2022-10-18T10:13:07.032Z,90.50
2022-10-18T10:15:38.145Z,90.10
2022-10-18T10:18:20.633Z,89.70
2022-10-18T10:20:51.649Z,89.40
2022-10-18T10:23:52.915Z,89.00
2022-10-18T10:26:56.429Z,88.30
2022-10-18T10:29:49.448Z,87.80
2022-10-18T10:32:18.894Z,88.00
2022-10-18T10:34:46.114Z,86.80
2022-10-18T10:37:26.065Z,86.60
2022-10-18T10:40:19.824Z,86.80
2022-10-18T10:43:18.436Z,86.80
2022-10-18T10:46:06.552Z,86.60
2022-10-18T10:49:15.307Z,86.00
2022-10-18T10:51:45.213Z,85.80
2022-10-18T10:54:26.444Z,85.10
2022-10-18T10:57:19.821Z,83.90
2022-10-18T10:59:56.791Z,82.20
2022-10-18T11:02:31.786Z,82.40
2022-10-18T11:05:29.248Z,82.00
2022-10-18T11:08:02.420Z,82.70
2022-10-18T11:10:37.349Z,81.50
2022-10-18T11:13:30.771Z,80.60
2022-10-18T11:16:05.697Z,80.40
2022-10-18T11:18:35.030Z,80.40
2022-10-18T11:21:14.944Z,80.70
2022-10-18T11:23:43.303Z,81.20
2022-10-18T11:26:12.905Z,80.00
2022-10-18T11:29:11.515Z,79.80
2022-10-18T11:32:04.299Z,80.70
2022-10-18T11:34:49.137Z,79.40
2022-10-18T11:37:30.310Z,77.80
2022-10-18T11:40:17.660Z,78.00
2022-10-18T11:43:10.177Z,77.80
2022-10-18T11:45:44.885Z,76.50
2022-10-18T11:48:29.358Z,75.80
2022-10-18T11:51:23.769Z,75.90
2022-10-18T11:54:14.491Z,75.00
2022-10-18T11:57:12.736Z,75.40
2022-10-18T12:00:01.915Z,75.00
2022-10-18T12:03:02.998Z,74.00
2022-10-18T12:05:32.091Z,74.60
2022-10-18T12:08:25.536Z,74.40
2022-10-18T12:11:05.520Z,73.80
2022-10-18T12:13:48.508Z,73.50
2022-10-18T12:16:16.478Z,73.00
2022-10-18T12:18:54.695Z,72.30
2022-10-18T12:21:26.822Z,72.70
2022-10-18T12:23:55.555Z,71.90
2022-10-18T12:26:22.978Z,71.20
2022-10-18T12:28:50.462Z,71.70
2022-10-18T12:31:42.040Z,70.30
2022-10-18T12:34:43.551Z,70.80
2022-10-18T12:37:34.858Z,70.90
2022-10-18T12:40:14.649Z,70.40
2022-10-18T12:42:47.638Z,69.70
2022-10-18T12:45:25.371Z,69.50
2022-10-18T12:47:55.313Z,68.80
2022-10-18T12:50:39.238Z,69.00
2022-10-18T12:53:27.199Z,68.20
2022-10-18T12:55:57.685Z,69.20
2022-10-18T12:58:32.120Z,67.70
2022-10-18T13:01:03.274Z,67.10
2022-10-18T13:03:50.484Z,67.20
2022-10-18T13:06:17.436Z,67.30
2022-10-18T13:08:46.017Z,67.40
2022-10-18T13:11:12.863Z,67.10
2022-10-18T13:13:48.453Z,67.00
2022-10-18T13:16:23.931Z,66.10
2022-10-18T13:18:50.698Z,65.60
2022-10-18T13:22:08.312Z,65.50
2022-10-18T13:25:04.348Z,67.20
2022-10-18T13:27:52.190Z,66.30
2022-10-18T13:30:25.933Z,65.40
2022-10-18T13:33:03.589Z,65.00
2022-10-18T13:35:52.079Z,64.40
2022-10-18T13:38:57.258Z,65.00
2022-10-18T13:41:25.309Z,64.70
2022-10-18T13:44:01.001Z,64.40
2022-10-18T13:46:33.539Z,63.70
2022-10-18T13:49:21.277Z,63.70
2022-10-18T13:52:15.475Z,63.90
2022-10-18T13:54:48.651Z,63.80
2022-10-18T13:57:21.322Z,63.10
2022-10-18T14:00:00.216Z,63.40
2022-10-18T14:03:22.767Z,63.10
2022-10-18T14:06:18.927Z,63.60
2022-10-18T14:09:25.609Z,63.40
2022-10-18T14:12:23.971Z,63.50
2022-10-18T14:15:02.639Z,63.10
2022-10-18T14:17:56.361Z,62.40
2022-10-18T14:20:49.543Z,62.60
2022-10-18T14:23:47.740Z,61.70
2022-10-18T14:26:19.756Z,61.90
2022-10-18T14:29:06.437Z,61.00
2022-10-18T14:31:34.657Z,61.40
2022-10-18T14:34:01.612Z,60.80
2022-10-18T14:36:36.777Z,60.40
2022-10-18T14:39:06.346Z,59.80
2022-10-18T14:41:50.068Z,59.60
2022-10-18T14:44:17.605Z,59.40
2022-10-18T14:46:46.914Z,59.50
2022-10-18T14:49:15.046Z,59.20
2022-10-18T14:51:53.807Z,59.30
2022-10-18T14:54:30.746Z,59.40
2022-10-18T14:57:00.246Z,59.50
2022-10-18T14:59:41.911Z,59.50
2022-10-18T15:02:18.762Z,60.20
2022-10-18T15:04:47.112Z,60.10
2022-10-18T15:07:16.368Z,60.50
2022-10-18T15:09:44.386Z,60.70
2022-10-18T15:12:14.704Z,60.30
2022-10-18T15:14:43.398Z,59.20
2022-10-18T15:17:28.352Z,58.80
2022-10-18T15:19:55.087Z,58.90
2022-10-18T15:22:31.764Z,58.90
2022-10-18T15:25:17.145Z,58.70
2022-10-18T15:27:59.407Z,59.40
2022-10-18T15:30:29.066Z,59.20
2022-10-18T15:33:02.565Z,59.80
2022-10-18T15:35:31.964Z,59.80
2022-10-18T15:38:33.059Z,60.10
2022-10-18T15:40:59.891Z,60.40
2022-10-18T15:43:29.346Z,60.50
2022-10-18T15:46:06.955Z,60.40
2022-10-18T15:48:39.714Z,60.30
2022-10-18T15:51:32.575Z,61.20
2022-10-18T15:53:59.334Z,60.60
2022-10-18T15:56:37.485Z,60.70
2022-10-18T15:59:26.153Z,61.00
2022-10-18T16:01:56.118Z,61.20
2022-10-18T16:04:31.632Z,61.40
2022-10-18T16:07:01.239Z,61.60
2022-10-18T16:09:29.525Z,61.70
2022-10-18T16:11:59.439Z,61.80
2022-10-18T16:14:26.823Z,62.10
2022-10-18T16:16:56.625Z,62.10
2022-10-18T16:19:23.394Z,62.20
2022-10-18T16:21:51.693Z,62.50
2022-10-18T16:24:19.367Z,62.70
2022-10-18T16:26:46.962Z,62.80
2022-10-18T16:29:15.636Z,62.90
2022-10-18T16:31:42.914Z,63.10
2022-10-18T16:34:11.291Z,63.20
2022-10-18T16:36:38.126Z,63.40
2022-10-18T16:39:09.616Z,63.50
2022-10-18T16:41:36.395Z,63.60
2022-10-18T16:44:05.213Z,63.90
2022-10-18T16:46:34.453Z,64.00
2022-10-18T16:49:04.713Z,64.10
2022-10-18T16:51:32.129Z,64.20
2022-10-18T16:53:58.817Z,64.30
2022-10-18T16:56:33.138Z,64.30
2022-10-18T16:59:03.856Z,64.50
2022-10-18T17:01:30.724Z,64.50
2022-10-18T17:03:57.586Z,64.60
2022-10-18T17:06:34.755Z,64.70
2022-10-18T17:09:01.608Z,64.80
2022-10-18T17:11:28.744Z,64.90
2022-10-18T17:13:55.838Z,64.90
2022-10-18T17:19:06.470Z,65.10
2022-10-18T17:21:33.683Z,65.30
2022-10-18T17:24:05.974Z,65.30
2022-10-18T17:26:33.012Z,65.40
2022-10-18T17:29:01.942Z,65.50
2022-10-18T17:31:30.219Z,65.70
2022-10-18T17:34:00.892Z,65.70
2022-10-18T17:36:27.976Z,65.90
2022-10-18T17:38:55.153Z,66.10
2022-10-18T17:41:22.382Z,66.20
2022-10-18T17:43:49.397Z,66.30
2022-10-18T17:46:19.760Z,66.40
2022-10-18T17:48:46.778Z,66.50
2022-10-18T17:51:16.044Z,66.60
2022-10-18T17:53:42.882Z,66.90
2022-10-18T17:56:10.964Z,67.00
2022-10-18T17:58:38.039Z,67.20
2022-10-18T18:01:19.750Z,67.30
2022-10-18T18:03:49.673Z,67.40
2022-10-18T18:06:22.284Z,67.40
2022-10-18T18:08:49.883Z,67.70
2022-10-18T18:11:17.941Z,67.80
2022-10-18T18:13:44.857Z,68.00
2022-10-18T18:16:21.322Z,68.20
2022-10-18T18:18:51.147Z,68.30
2022-10-18T18:21:18.543Z,68.40
2022-10-18T18:23:45.909Z,68.60
2022-10-18T18:26:13.211Z,68.60
2022-10-18T18:28:40.072Z,68.80
2022-10-18T18:31:16.745Z,68.90
2022-10-18T18:33:44.290Z,69.10
2022-10-18T18:36:14.940Z,69.10
2022-10-18T18:38:44.903Z,69.00
2022-10-18T18:41:18.004Z,69.20
2022-10-18T18:43:50.634Z,69.30
2022-10-18T18:46:18.297Z,69.40
2022-10-18T18:48:45.093Z,69.50
2022-10-18T18:51:17.432Z,69.70
2022-10-18T18:53:48.243Z,69.90
2022-10-18T18:56:17.584Z,70.00
2022-10-18T18:58:45.110Z,70.10
2022-10-18T19:01:18.671Z,70.10
2022-10-18T19:03:47.881Z,70.20
2022-10-18T19:06:20.792Z,70.40
2022-10-18T19:08:50.495Z,70.40
2022-10-18T19:11:20.669Z,70.60
2022-10-18T19:13:49.049Z,70.70
2022-10-18T19:16:37.441Z,70.90
2022-10-18T19:19:11.103Z,70.90
2022-10-18T19:21:46.148Z,71.10
2022-10-18T19:24:13.803Z,71.20
2022-10-18T19:26:45.353Z,71.30
2022-10-18T19:29:17.873Z,71.30
2022-10-18T19:31:45.435Z,71.40
2022-10-18T19:34:13.847Z,71.60
2022-10-18T19:36:41.819Z,71.70
2022-10-18T19:39:11.723Z,71.90
2022-10-18T19:41:38.517Z,72.00
2022-10-18T19:44:06.726Z,72.00
2022-10-18T19:46:33.466Z,72.10
2022-10-18T19:49:00.128Z,72.30
2022-10-18T19:51:28.356Z,72.40
2022-10-18T19:53:56.616Z,72.40
2022-10-18T19:56:24.727Z,72.40
2022-10-18T19:58:51.587Z,72.50
2022-10-18T20:01:18.793Z,72.60
2022-10-18T20:03:46.517Z,72.80
2022-10-18T20:06:13.819Z,73.00
2022-10-18T20:11:16.793Z,72.90
2022-10-18T20:13:43.649Z,73.10
2022-10-18T20:16:11.718Z,73.20
2022-10-18T20:18:40.216Z,73.40
2022-10-18T20:21:08.164Z,73.40
2022-10-18T20:23:36.748Z,73.60
2022-10-18T20:26:06.364Z,73.60
2022-10-18T20:28:33.760Z,73.70
2022-10-18T20:31:16.103Z,73.70
2022-10-18T20:33:42.820Z,73.80
2022-10-18T20:36:11.865Z,73.80
2022-10-18T20:38:40.767Z,73.90
2022-10-18T20:41:12.692Z,74.00
2022-10-18T20:43:40.074Z,74.10
2022-10-18T20:46:07.873Z,74.20
2022-10-18T20:48:35.482Z,74.10
2022-10-18T20:51:12.699Z,74.20
2022-10-18T20:53:40.657Z,74.30
2022-10-18T20:56:13.458Z,74.30
2022-10-18T20:58:42.849Z,74.30
2022-10-18T21:01:19.338Z,74.30
2022-10-18T21:03:47.489Z,74.30
2022-10-18T21:06:16.854Z,74.40
2022-10-18T21:08:47.104Z,74.40
2022-10-18T21:11:14.447Z,74.50
2022-10-18T21:13:41.182Z,74.40
2022-10-18T21:16:08.517Z,74.60
2022-10-18T21:18:36.971Z,74.60
2022-10-18T21:23:39.486Z,74.60
2022-10-18T21:26:06.888Z,74.60
2022-10-18T21:28:33.870Z,74.60
2022-10-18T21:31:18.075Z,74.80
2022-10-18T21:33:46.484Z,74.80
2022-10-18T21:36:14.585Z,75.00
2022-10-18T21:38:45.560Z,75.10
2022-10-18T21:41:17.220Z,75.30
2022-10-18T21:43:46.771Z,75.30
2022-10-18T21:46:18.320Z,75.30
2022-10-18T21:48:47.210Z,75.40
2022-10-18T21:51:15.582Z,76.30
2022-10-18T21:53:44.221Z,75.60
2022-10-18T21:56:13.463Z,75.70
2022-10-18T21:58:40.548Z,75.60
2022-10-18T22:01:32.364Z,75.50
2022-10-18T22:04:01.599Z,75.60
2022-10-18T22:09:08.318Z,75.70
2022-10-18T22:11:39.874Z,75.80
2022-10-18T22:14:06.633Z,75.80
2022-10-18T22:16:33.341Z,75.80
2022-10-18T22:19:02.012Z,75.90
2022-10-18T22:21:29.103Z,75.90
2022-10-18T22:23:57.152Z,75.90
2022-10-18T22:26:25.313Z,76.00
2022-10-18T22:28:58.150Z,76.00
2022-10-18T22:31:27.476Z,76.10
2022-10-18T22:33:56.809Z,76.10
2022-10-18T22:36:26.548Z,76.20
2022-10-18T22:38:56.439Z,76.10
2022-10-18T22:41:23.295Z,76.20
2022-10-18T22:43:50.924Z,76.20
2022-10-18T22:46:18.248Z,76.30
2022-10-18T22:48:45.337Z,76.30
2022-10-18T22:51:12.839Z,76.40
2022-10-18T22:53:40.390Z,76.50
2022-10-18T22:56:09.719Z,76.50
2022-10-18T22:58:36.520Z,76.60
2022-10-18T23:01:06.200Z,76.50
2022-10-18T23:03:33.246Z,76.60
2022-10-18T23:06:03.616Z,76.60
2022-10-18T23:08:33.452Z,77.50
2022-10-18T23:11:00.376Z,77.80
2022-10-18T23:13:27.990Z,77.90
2022-10-18T23:16:04.462Z,77.90
2022-10-18T23:18:32.601Z,77.90
2022-10-18T23:21:13.523Z,77.80
2022-10-18T23:23:42.249Z,77.90
2022-10-18T23:26:13.167Z,78.00
2022-10-18T23:28:42.846Z,78.10
2022-10-18T23:31:18.169Z,78.00
2022-10-18T23:33:46.427Z,78.10
2022-10-18T23:36:13.755Z,77.90
2022-10-18T23:38:41.183Z,78.00
2022-10-18T23:41:09.811Z,78.00
2022-10-18T23:43:38.115Z,78.00
2022-10-18T23:46:05.213Z,78.10
2022-10-18T23:48:32.082Z,78.10
2022-10-18T23:50:58.752Z,78.10
2022-10-18T23:53:25.488Z,78.00
2022-10-18T23:55:57.831Z,78.10
2022-10-18T23:58:26.172Z,78.20
